sensor_id;sensor_type;location;lat;lon;timestamp;P1;durP1;ratioP1;P2;durP2;ratioP2
30519;SDS011;17300;50.374;8.006;2022-10-31T00:00:06;5.10;;;4.30;;
30519;SDS011;17300;50.374;8.006;2022-10-31T00:02:34;5.40;;;4.47;;
30519;SDS011;17300;50.374;8.006;2022-10-31T00:05:00;4.60;;;4.20;;
30519;SDS011;17300;50.374;8.006;2022-10-31T00:07:27;6.00;;;4.10;;
30519;SDS011;17300;50.374;8.006;2022-10-31T00:09:54;4.37;;;3.97;;
30519;SDS011;17300;50.374;8.006;2022-10-31T00:12:20;4.10;;;3.63;;
30519;SDS011;17300;50.374;8.006;2022-10-31T00:14:47;4.20;;;3.80;;
30519;SDS011;17300;50.374;8.006;2022-10-31T00:17:15;5.07;;;4.17;;
30519;SDS011;17300;50.374;8.006;2022-10-31T00:19:42;4.47;;;4.07;;
30519;SDS011;17300;50.374;8.006;2022-10-31T00:22:09;3.50;;;3.20;;
30519;SDS011;17300;50.374;8.006;2022-10-31T00:24:35;4.10;;;3.70;;
30519;SDS011;17300;50.374;8.006;2022-10-31T00:27:02;3.47;;;3.20;;
30519;SDS011;17300;50.374;8.006;2022-10-31T00:29:29;3.80;;;3.50;;
30519;SDS011;17300;50.374;8.006;2022-10-31T00:31:56;3.43;;;3.17;;
30519;SDS011;17300;50.374;8.006;2022-10-31T00:34:24;3.30;;;3.00;;
30519;SDS011;17300;50.374;8.006;2022-10-31T00:36:50;3.40;;;3.10;;
30519;SDS011;17300;50.374;8.006;2022-10-31T00:39:17;4.10;;;3.23;;
30519;SDS011;17300;50.374;8.006;2022-10-31T00:41:43;3.60;;;3.30;;
30519;SDS011;17300;50.374;8.006;2022-10-31T00:44:10;3.53;;;3.20;;
30519;SDS011;17300;50.374;8.006;2022-10-31T00:46:37;4.00;;;3.60;;
30519;SDS011;17300;50.374;8.006;2022-10-31T00:49:03;3.37;;;3.07;;
30519;SDS011;17300;50.374;8.006;2022-10-31T00:51:31;4.40;;;3.07;;
30519;SDS011;17300;50.374;8.006;2022-10-31T00:53:58;3.60;;;3.30;;
30519;SDS011;17300;50.374;8.006;2022-10-31T00:56:25;3.70;;;3.40;;
30519;SDS011;17300;50.374;8.006;2022-10-31T00:58:51;4.23;;;3.50;;
30519;SDS011;17300;50.374;8.006;2022-10-31T01:01:18;4.27;;;3.83;;
30519;SDS011;17300;50.374;8.006;2022-10-31T01:03:45;4.60;;;3.47;;
30519;SDS011;17300;50.374;8.006;2022-10-31T01:06:12;3.40;;;3.10;;
30519;SDS011;17300;50.374;8.006;2022-10-31T01:08:42;3.80;;;3.33;;
30519;SDS011;17300;50.374;8.006;2022-10-31T01:11:10;5.73;;;3.30;;
30519;SDS011;17300;50.374;8.006;2022-10-31T01:13:38;3.83;;;3.00;;
30519;SDS011;17300;50.374;8.006;2022-10-31T01:16:06;3.53;;;2.90;;
30519;SDS011;17300;50.374;8.006;2022-10-31T01:18:36;3.37;;;3.07;;
30519;SDS011;17300;50.374;8.006;2022-10-31T01:21:03;4.27;;;3.57;;
30519;SDS011;17300;50.374;8.006;2022-10-31T01:23:31;3.53;;;3.23;;
30519;SDS011;17300;50.374;8.006;2022-10-31T01:26:00;3.50;;;3.00;;
30519;SDS011;17300;50.374;8.006;2022-10-31T01:28:29;3.10;;;2.77;;
30519;SDS011;17300;50.374;8.006;2022-10-31T01:30:59;3.93;;;3.03;;
30519;SDS011;17300;50.374;8.006;2022-10-31T01:33:26;4.87;;;3.20;;
30519;SDS011;17300;50.374;8.006;2022-10-31T01:35:53;3.30;;;2.90;;
30519;SDS011;17300;50.374;8.006;2022-10-31T01:38:19;3.60;;;3.30;;
30519;SDS011;17300;50.374;8.006;2022-10-31T01:40:47;6.03;;;3.23;;
30519;SDS011;17300;50.374;8.006;2022-10-31T01:43:15;3.20;;;2.90;;
30519;SDS011;17300;50.374;8.006;2022-10-31T01:45:41;3.77;;;3.20;;
30519;SDS011;17300;50.374;8.006;2022-10-31T01:48:14;3.10;;;2.83;;
30519;SDS011;17300;50.374;8.006;2022-10-31T01:50:43;3.80;;;3.00;;
30519;SDS011;17300;50.374;8.006;2022-10-31T01:53:13;3.07;;;2.83;;
30519;SDS011;17300;50.374;8.006;2022-10-31T01:55:40;3.10;;;2.90;;
30519;SDS011;17300;50.374;8.006;2022-10-31T01:58:11;3.37;;;2.90;;
30519;SDS011;17300;50.374;8.006;2022-10-31T02:00:41;4.93;;;3.20;;
30519;SDS011;17300;50.374;8.006;2022-10-31T02:03:11;3.07;;;2.77;;
30519;SDS011;17300;50.374;8.006;2022-10-31T02:05:37;4.73;;;2.83;;
30519;SDS011;17300;50.374;8.006;2022-10-31T02:08:06;2.87;;;2.50;;
30519;SDS011;17300;50.374;8.006;2022-10-31T02:10:39;2.80;;;2.60;;
30519;SDS011;17300;50.374;8.006;2022-10-31T02:13:08;3.30;;;3.00;;
30519;SDS011;17300;50.374;8.006;2022-10-31T02:15:36;3.27;;;2.80;;
30519;SDS011;17300;50.374;8.006;2022-10-31T02:18:05;3.07;;;2.70;;
30519;SDS011;17300;50.374;8.006;2022-10-31T02:20:35;3.40;;;3.07;;
30519;SDS011;17300;50.374;8.006;2022-10-31T02:23:19;7.67;;;3.30;;
30519;SDS011;17300;50.374;8.006;2022-10-31T02:26:02;3.30;;;3.00;;
30519;SDS011;17300;50.374;8.006;2022-10-31T02:28:58;3.23;;;3.00;;
30519;SDS011;17300;50.374;8.006;2022-10-31T02:31:39;3.17;;;2.77;;
30519;SDS011;17300;50.374;8.006;2022-10-31T02:34:18;3.10;;;2.80;;
30519;SDS011;17300;50.374;8.006;2022-10-31T02:36:50;3.63;;;2.90;;
30519;SDS011;17300;50.374;8.006;2022-10-31T02:39:25;3.40;;;2.77;;
30519;SDS011;17300;50.374;8.006;2022-10-31T02:42:00;2.60;;;2.40;;
30519;SDS011;17300;50.374;8.006;2022-10-31T02:44:34;2.30;;;2.10;;
30519;SDS011;17300;50.374;8.006;2022-10-31T02:47:05;2.60;;;2.30;;
30519;SDS011;17300;50.374;8.006;2022-10-31T02:49:36;2.63;;;2.40;;
30519;SDS011;17300;50.374;8.006;2022-10-31T02:52:13;2.67;;;2.23;;
30519;SDS011;17300;50.374;8.006;2022-10-31T02:54:43;2.30;;;2.10;;
30519;SDS011;17300;50.374;8.006;2022-10-31T02:57:12;2.20;;;1.90;;
30519;SDS011;17300;50.374;8.006;2022-10-31T02:59:41;2.37;;;2.17;;
30519;SDS011;17300;50.374;8.006;2022-10-31T03:02:25;2.67;;;2.20;;
30519;SDS011;17300;50.374;8.006;2022-10-31T03:05:14;4.97;;;1.90;;
30519;SDS011;17300;50.374;8.006;2022-10-31T03:07:59;2.57;;;2.20;;
30519;SDS011;17300;50.374;8.006;2022-10-31T03:10:35;2.70;;;2.20;;
30519;SDS011;17300;50.374;8.006;2022-10-31T03:13:08;2.13;;;1.93;;
30519;SDS011;17300;50.374;8.006;2022-10-31T03:15:39;2.50;;;2.30;;
30519;SDS011;17300;50.374;8.006;2022-10-31T03:18:11;3.33;;;2.27;;
30519;SDS011;17300;50.374;8.006;2022-10-31T03:20:44;3.10;;;2.00;;
30519;SDS011;17300;50.374;8.006;2022-10-31T03:23:15;2.03;;;1.83;;
30519;SDS011;17300;50.374;8.006;2022-10-31T03:25:45;2.50;;;1.80;;
30519;SDS011;17300;50.374;8.006;2022-10-31T03:28:15;1.70;;;1.60;;
30519;SDS011;17300;50.374;8.006;2022-10-31T03:30:45;2.13;;;1.93;;
30519;SDS011;17300;50.374;8.006;2022-10-31T03:33:16;4.07;;;2.83;;
30519;SDS011;17300;50.374;8.006;2022-10-31T03:35:48;2.43;;;2.20;;
30519;SDS011;17300;50.374;8.006;2022-10-31T03:38:18;2.10;;;2.00;;
30519;SDS011;17300;50.374;8.006;2022-10-31T03:40:47;2.77;;;2.40;;
30519;SDS011;17300;50.374;8.006;2022-10-31T03:43:18;2.63;;;2.30;;
30519;SDS011;17300;50.374;8.006;2022-10-31T03:45:51;2.50;;;2.30;;
30519;SDS011;17300;50.374;8.006;2022-10-31T03:48:19;2.63;;;2.30;;
30519;SDS011;17300;50.374;8.006;2022-10-31T03:50:49;2.10;;;1.90;;
30519;SDS011;17300;50.374;8.006;2022-10-31T03:53:22;2.10;;;1.90;;
30519;SDS011;17300;50.374;8.006;2022-10-31T03:55:55;2.20;;;2.00;;
30519;SDS011;17300;50.374;8.006;2022-10-31T03:58:27;1.93;;;1.83;;
30519;SDS011;17300;50.374;8.006;2022-10-31T04:00:59;3.80;;;2.20;;
30519;SDS011;17300;50.374;8.006;2022-10-31T04:03:30;3.20;;;2.63;;
30519;SDS011;17300;50.374;8.006;2022-10-31T04:06:00;2.63;;;2.27;;
30519;SDS011;17300;50.374;8.006;2022-10-31T04:08:32;2.70;;;2.10;;
30519;SDS011;17300;50.374;8.006;2022-10-31T04:11:03;3.37;;;2.70;;
30519;SDS011;17300;50.374;8.006;2022-10-31T04:13:32;4.60;;;2.63;;
30519;SDS011;17300;50.374;8.006;2022-10-31T04:16:03;15.73;;;3.33;;
30519;SDS011;17300;50.374;8.006;2022-10-31T04:18:32;4.67;;;3.07;;
30519;SDS011;17300;50.374;8.006;2022-10-31T04:21:00;4.60;;;2.90;;
30519;SDS011;17300;50.374;8.006;2022-10-31T04:23:28;6.40;;;2.80;;
30519;SDS011;17300;50.374;8.006;2022-10-31T04:25:55;3.67;;;2.33;;
30519;SDS011;17300;50.374;8.006;2022-10-31T04:28:22;5.77;;;2.53;;
30519;SDS011;17300;50.374;8.006;2022-10-31T04:30:49;3.60;;;2.60;;
30519;SDS011;17300;50.374;8.006;2022-10-31T04:33:16;3.20;;;2.73;;
30519;SDS011;17300;50.374;8.006;2022-10-31T04:35:44;5.37;;;2.87;;
30519;SDS011;17300;50.374;8.006;2022-10-31T04:38:12;5.57;;;3.40;;
30519;SDS011;17300;50.374;8.006;2022-10-31T04:40:38;3.53;;;3.10;;
30519;SDS011;17300;50.374;8.006;2022-10-31T04:43:05;4.80;;;3.30;;
30519;SDS011;17300;50.374;8.006;2022-10-31T04:45:31;5.83;;;4.00;;
30519;SDS011;17300;50.374;8.006;2022-10-31T04:47:58;6.87;;;4.03;;
30519;SDS011;17300;50.374;8.006;2022-10-31T04:50:25;6.33;;;4.00;;
30519;SDS011;17300;50.374;8.006;2022-10-31T04:52:53;4.87;;;4.27;;
30519;SDS011;17300;50.374;8.006;2022-10-31T04:55:20;6.30;;;4.13;;
30519;SDS011;17300;50.374;8.006;2022-10-31T04:57:48;4.40;;;3.67;;
30519;SDS011;17300;50.374;8.006;2022-10-31T05:00:16;6.37;;;3.77;;
30519;SDS011;17300;50.374;8.006;2022-10-31T05:02:44;5.17;;;3.77;;
30519;SDS011;17300;50.374;8.006;2022-10-31T05:05:11;5.47;;;3.53;;
30519;SDS011;17300;50.374;8.006;2022-10-31T05:07:38;4.77;;;3.80;;
30519;SDS011;17300;50.374;8.006;2022-10-31T05:10:08;4.00;;;3.33;;
30519;SDS011;17300;50.374;8.006;2022-10-31T05:12:35;4.63;;;3.30;;
30519;SDS011;17300;50.374;8.006;2022-10-31T05:15:03;4.43;;;3.93;;
30519;SDS011;17300;50.374;8.006;2022-10-31T05:17:31;6.10;;;3.47;;
30519;SDS011;17300;50.374;8.006;2022-10-31T05:19:58;4.60;;;3.70;;
30519;SDS011;17300;50.374;8.006;2022-10-31T05:22:25;5.57;;;4.00;;
30519;SDS011;17300;50.374;8.006;2022-10-31T05:24:51;11.23;;;3.97;;
30519;SDS011;17300;50.374;8.006;2022-10-31T05:27:19;7.37;;;4.27;;
30519;SDS011;17300;50.374;8.006;2022-10-31T05:29:46;5.00;;;3.37;;
30519;SDS011;17300;50.374;8.006;2022-10-31T05:32:13;6.57;;;3.87;;
30519;SDS011;17300;50.374;8.006;2022-10-31T05:34:40;6.20;;;4.07;;
30519;SDS011;17300;50.374;8.006;2022-10-31T05:37:07;6.00;;;4.13;;
30519;SDS011;17300;50.374;8.006;2022-10-31T05:39:33;11.03;;;4.77;;
30519;SDS011;17300;50.374;8.006;2022-10-31T05:42:00;13.83;;;4.43;;
30519;SDS011;17300;50.374;8.006;2022-10-31T05:44:28;5.67;;;4.20;;
30519;SDS011;17300;50.374;8.006;2022-10-31T05:46:55;8.37;;;4.10;;
30519;SDS011;17300;50.374;8.006;2022-10-31T05:49:22;4.40;;;4.00;;
30519;SDS011;17300;50.374;8.006;2022-10-31T05:51:48;5.93;;;3.73;;
30519;SDS011;17300;50.374;8.006;2022-10-31T05:54:15;11.83;;;4.17;;
30519;SDS011;17300;50.374;8.006;2022-10-31T05:56:42;6.30;;;3.50;;
30519;SDS011;17300;50.374;8.006;2022-10-31T05:59:08;3.90;;;3.40;;
30519;SDS011;17300;50.374;8.006;2022-10-31T06:01:36;3.87;;;3.57;;
30519;SDS011;17300;50.374;8.006;2022-10-31T06:04:03;4.40;;;3.57;;
30519;SDS011;17300;50.374;8.006;2022-10-31T06:06:30;4.03;;;3.63;;
30519;SDS011;17300;50.374;8.006;2022-10-31T06:08:57;4.53;;;3.27;;
30519;SDS011;17300;50.374;8.006;2022-10-31T06:11:24;7.27;;;4.00;;
30519;SDS011;17300;50.374;8.006;2022-10-31T06:13:50;6.70;;;3.50;;
30519;SDS011;17300;50.374;8.006;2022-10-31T06:16:17;3.37;;;3.10;;
30519;SDS011;17300;50.374;8.006;2022-10-31T06:18:46;3.23;;;2.93;;
30519;SDS011;17300;50.374;8.006;2022-10-31T06:21:13;6.40;;;3.83;;
30519;SDS011;17300;50.374;8.006;2022-10-31T06:23:39;4.67;;;3.57;;
30519;SDS011;17300;50.374;8.006;2022-10-31T06:26:06;4.40;;;3.40;;
30519;SDS011;17300;50.374;8.006;2022-10-31T06:28:33;3.57;;;3.27;;
30519;SDS011;17300;50.374;8.006;2022-10-31T06:30:59;6.30;;;3.47;;
30519;SDS011;17300;50.374;8.006;2022-10-31T06:33:26;8.87;;;3.60;;
30519;SDS011;17300;50.374;8.006;2022-10-31T06:35:54;8.10;;;3.20;;
30519;SDS011;17300;50.374;8.006;2022-10-31T06:38:21;4.93;;;3.20;;
30519;SDS011;17300;50.374;8.006;2022-10-31T06:40:48;2.83;;;2.63;;
30519;SDS011;17300;50.374;8.006;2022-10-31T06:43:15;4.03;;;2.90;;
30519;SDS011;17300;50.374;8.006;2022-10-31T06:45:41;4.43;;;2.70;;
30519;SDS011;17300;50.374;8.006;2022-10-31T06:48:08;3.13;;;2.90;;
30519;SDS011;17300;50.374;8.006;2022-10-31T06:50:35;5.37;;;2.83;;
30519;SDS011;17300;50.374;8.006;2022-10-31T06:53:03;3.10;;;2.80;;
30519;SDS011;17300;50.374;8.006;2022-10-31T06:55:29;2.73;;;2.53;;
30519;SDS011;17300;50.374;8.006;2022-10-31T06:57:57;3.30;;;3.00;;
30519;SDS011;17300;50.374;8.006;2022-10-31T07:00:26;3.40;;;2.93;;
30519;SDS011;17300;50.374;8.006;2022-10-31T07:02:55;2.87;;;2.67;;
30519;SDS011;17300;50.374;8.006;2022-10-31T07:05:29;4.20;;;3.07;;
30519;SDS011;17300;50.374;8.006;2022-10-31T07:07:57;3.80;;;3.23;;
30519;SDS011;17300;50.374;8.006;2022-10-31T07:10:27;3.07;;;2.87;;
30519;SDS011;17300;50.374;8.006;2022-10-31T07:12:55;5.27;;;3.07;;
30519;SDS011;17300;50.374;8.006;2022-10-31T07:15:22;3.57;;;3.23;;
30519;SDS011;17300;50.374;8.006;2022-10-31T07:17:49;4.50;;;3.13;;
30519;SDS011;17300;50.374;8.006;2022-10-31T07:20:16;3.23;;;3.03;;
30519;SDS011;17300;50.374;8.006;2022-10-31T07:22:43;7.47;;;3.23;;
30519;SDS011;17300;50.374;8.006;2022-10-31T07:25:12;3.47;;;2.80;;
30519;SDS011;17300;50.374;8.006;2022-10-31T07:28:19;4.57;;;2.83;;
30519;SDS011;17300;50.374;8.006;2022-10-31T07:30:56;3.37;;;2.90;;
30519;SDS011;17300;50.374;8.006;2022-10-31T07:45:03;2.97;;;2.13;;
30519;SDS011;17300;50.374;8.006;2022-10-31T07:47:37;4.20;;;2.73;;
30519;SDS011;17300;50.374;8.006;2022-10-31T07:50:04;2.70;;;2.50;;
30519;SDS011;17300;50.374;8.006;2022-10-31T07:52:31;2.90;;;2.70;;
30519;SDS011;17300;50.374;8.006;2022-10-31T07:54:58;2.70;;;2.50;;
30519;SDS011;17300;50.374;8.006;2022-10-31T07:57:25;2.63;;;2.43;;
30519;SDS011;17300;50.374;8.006;2022-10-31T07:59:51;2.63;;;2.43;;
30519;SDS011;17300;50.374;8.006;2022-10-31T08:02:19;2.73;;;2.53;;
30519;SDS011;17300;50.374;8.006;2022-10-31T08:04:46;3.10;;;2.80;;
30519;SDS011;17300;50.374;8.006;2022-10-31T08:07:13;2.80;;;2.60;;
30519;SDS011;17300;50.374;8.006;2022-10-31T08:09:40;2.97;;;2.77;;
30519;SDS011;17300;50.374;8.006;2022-10-31T08:12:08;3.00;;;2.70;;
30519;SDS011;17300;50.374;8.006;2022-10-31T08:14:45;3.13;;;2.93;;
30519;SDS011;17300;50.374;8.006;2022-10-31T08:17:17;2.93;;;2.73;;
30519;SDS011;17300;50.374;8.006;2022-10-31T08:19:45;3.20;;;2.83;;
30519;SDS011;17300;50.374;8.006;2022-10-31T08:22:12;3.60;;;3.30;;
30519;SDS011;17300;50.374;8.006;2022-10-31T08:24:40;3.23;;;2.97;;
30519;SDS011;17300;50.374;8.006;2022-10-31T08:27:07;4.40;;;3.17;;
30519;SDS011;17300;50.374;8.006;2022-10-31T08:29:33;4.70;;;3.67;;
30519;SDS011;17300;50.374;8.006;2022-10-31T08:32:00;3.80;;;3.50;;
30519;SDS011;17300;50.374;8.006;2022-10-31T08:34:27;3.73;;;3.43;;
30519;SDS011;17300;50.374;8.006;2022-10-31T08:36:55;3.63;;;3.33;;
30519;SDS011;17300;50.374;8.006;2022-10-31T08:39:21;4.00;;;3.43;;
30519;SDS011;17300;50.374;8.006;2022-10-31T08:41:48;3.37;;;3.13;;
30519;SDS011;17300;50.374;8.006;2022-10-31T08:44:15;3.60;;;3.30;;
30519;SDS011;17300;50.374;8.006;2022-10-31T08:46:43;3.77;;;3.47;;
30519;SDS011;17300;50.374;8.006;2022-10-31T08:49:09;3.60;;;3.30;;
30519;SDS011;17300;50.374;8.006;2022-10-31T08:51:36;3.40;;;3.10;;
30519;SDS011;17300;50.374;8.006;2022-10-31T08:54:04;3.60;;;3.30;;
30519;SDS011;17300;50.374;8.006;2022-10-31T08:56:31;3.57;;;3.27;;
30519;SDS011;17300;50.374;8.006;2022-10-31T08:58:58;3.87;;;3.57;;
30519;SDS011;17300;50.374;8.006;2022-10-31T09:01:24;3.57;;;3.27;;
30519;SDS011;17300;50.374;8.006;2022-10-31T09:03:51;3.53;;;3.23;;
30519;SDS011;17300;50.374;8.006;2022-10-31T09:06:18;3.60;;;3.30;;
30519;SDS011;17300;50.374;8.006;2022-10-31T09:08:45;3.27;;;3.03;;
30519;SDS011;17300;50.374;8.006;2022-10-31T09:11:13;3.60;;;3.30;;
30519;SDS011;17300;50.374;8.006;2022-10-31T09:13:43;5.50;;;4.60;;
30519;SDS011;17300;50.374;8.006;2022-10-31T09:16:10;5.50;;;4.83;;
30519;SDS011;17300;50.374;8.006;2022-10-31T09:18:36;6.60;;;5.80;;
30519;SDS011;17300;50.374;8.006;2022-10-31T09:21:03;9.03;;;7.00;;
30519;SDS011;17300;50.374;8.006;2022-10-31T09:23:30;8.47;;;6.50;;
30519;SDS011;17300;50.374;8.006;2022-10-31T09:25:58;7.47;;;6.60;;
30519;SDS011;17300;50.374;8.006;2022-10-31T09:28:27;9.37;;;7.87;;
30519;SDS011;17300;50.374;8.006;2022-10-31T09:30:54;9.40;;;7.87;;
30519;SDS011;17300;50.374;8.006;2022-10-31T09:33:21;11.03;;;9.90;;
30519;SDS011;17300;50.374;8.006;2022-10-31T09:35:48;12.80;;;10.90;;
30519;SDS011;17300;50.374;8.006;2022-10-31T09:38:16;7.80;;;7.10;;
30519;SDS011;17300;50.374;8.006;2022-10-31T09:40:46;7.00;;;6.30;;
30519;SDS011;17300;50.374;8.006;2022-10-31T09:43:15;9.33;;;6.93;;
30519;SDS011;17300;50.374;8.006;2022-10-31T09:45:55;8.20;;;7.20;;
30519;SDS011;17300;50.374;8.006;2022-10-31T09:51:23;6.15;;;5.55;;
30519;SDS011;17300;50.374;8.006;2022-10-31T09:53:57;5.95;;;5.35;;
30519;SDS011;17300;50.374;8.006;2022-10-31T09:56:28;5.95;;;5.30;;
30519;SDS011;17300;50.374;8.006;2022-10-31T09:58:57;5.85;;;5.28;;
30519;SDS011;17300;50.374;8.006;2022-10-31T10:01:29;5.50;;;4.93;;
30519;SDS011;17300;50.374;8.006;2022-10-31T10:04:10;5.43;;;4.93;;
30519;SDS011;17300;50.374;8.006;2022-10-31T10:06:47;6.72;;;5.10;;
30519;SDS011;17300;50.374;8.006;2022-10-31T10:09:17;4.97;;;4.47;;
30519;SDS011;17300;50.374;8.006;2022-10-31T10:11:48;5.50;;;5.00;;
30519;SDS011;17300;50.374;8.006;2022-10-31T10:14:27;5.13;;;4.72;;
30519;SDS011;17300;50.374;8.006;2022-10-31T10:17:06;4.60;;;4.20;;
30519;SDS011;17300;50.374;8.006;2022-10-31T10:19:48;4.80;;;4.40;;
30519;SDS011;17300;50.374;8.006;2022-10-31T10:22:27;5.28;;;4.78;;
30519;SDS011;17300;50.374;8.006;2022-10-31T10:25:13;6.87;;;5.07;;
30519;SDS011;17300;50.374;8.006;2022-10-31T10:27:46;5.63;;;4.83;;
30519;SDS011;17300;50.374;8.006;2022-10-31T10:30:23;4.97;;;4.57;;
30519;SDS011;17300;50.374;8.006;2022-10-31T10:32:59;5.77;;;5.27;;
30519;SDS011;17300;50.374;8.006;2022-10-31T10:35:31;6.40;;;5.37;;
30519;SDS011;17300;50.374;8.006;2022-10-31T10:38:02;5.67;;;5.07;;
30519;SDS011;17300;50.374;8.006;2022-10-31T10:40:36;5.33;;;4.83;;
30519;SDS011;17300;50.374;8.006;2022-10-31T10:43:10;5.67;;;5.17;;
30519;SDS011;17300;50.374;8.006;2022-10-31T10:45:49;5.83;;;5.23;;
30519;SDS011;17300;50.374;8.006;2022-10-31T10:48:41;4.93;;;4.53;;
30519;SDS011;17300;50.374;8.006;2022-10-31T10:51:13;4.67;;;4.27;;
30519;SDS011;17300;50.374;8.006;2022-10-31T10:53:47;5.10;;;4.70;;
30519;SDS011;17300;50.374;8.006;2022-10-31T10:56:32;4.87;;;4.47;;
30519;SDS011;17300;50.374;8.006;2022-10-31T10:59:19;5.37;;;4.87;;
30519;SDS011;17300;50.374;8.006;2022-10-31T11:01:48;5.17;;;4.67;;
30519;SDS011;17300;50.374;8.006;2022-10-31T11:04:28;6.43;;;4.60;;
30519;SDS011;17300;50.374;8.006;2022-10-31T11:07:00;5.30;;;4.80;;
30519;SDS011;17300;50.374;8.006;2022-10-31T11:09:28;5.27;;;4.67;;
30519;SDS011;17300;50.374;8.006;2022-10-31T11:11:55;5.10;;;4.57;;
30519;SDS011;17300;50.374;8.006;2022-10-31T11:14:22;6.30;;;4.90;;
30519;SDS011;17300;50.374;8.006;2022-10-31T11:16:50;5.30;;;4.67;;
30519;SDS011;17300;50.374;8.006;2022-10-31T11:19:20;5.43;;;4.87;;
30519;SDS011;17300;50.374;8.006;2022-10-31T11:21:51;6.13;;;5.53;;
30519;SDS011;17300;50.374;8.006;2022-10-31T11:24:20;5.77;;;5.23;;
30519;SDS011;17300;50.374;8.006;2022-10-31T11:26:50;6.03;;;5.30;;
30519;SDS011;17300;50.374;8.006;2022-10-31T11:29:20;5.17;;;4.70;;
30519;SDS011;17300;50.374;8.006;2022-10-31T11:31:48;6.57;;;4.93;;
30519;SDS011;17300;50.374;8.006;2022-10-31T11:34:25;6.53;;;5.50;;
30519;SDS011;17300;50.374;8.006;2022-10-31T11:36:56;5.70;;;5.07;;
30519;SDS011;17300;50.374;8.006;2022-10-31T11:39:28;6.13;;;5.10;;
30519;SDS011;17300;50.374;8.006;2022-10-31T11:41:59;7.80;;;5.83;;
30519;SDS011;17300;50.374;8.006;2022-10-31T11:44:28;5.90;;;5.27;;
30519;SDS011;17300;50.374;8.006;2022-10-31T11:46:58;7.17;;;6.30;;
30519;SDS011;17300;50.374;8.006;2022-10-31T11:49:28;8.80;;;7.33;;
30519;SDS011;17300;50.374;8.006;2022-10-31T11:51:59;8.17;;;7.10;;
30519;SDS011;17300;50.374;8.006;2022-10-31T11:54:32;7.20;;;6.33;;
30519;SDS011;17300;50.374;8.006;2022-10-31T11:57:02;6.73;;;5.50;;
30519;SDS011;17300;50.374;8.006;2022-10-31T11:59:30;6.43;;;5.23;;
30519;SDS011;17300;50.374;8.006;2022-10-31T12:01:58;5.23;;;4.73;;
30519;SDS011;17300;50.374;8.006;2022-10-31T12:04:29;6.50;;;5.87;;
30519;SDS011;17300;50.374;8.006;2022-10-31T12:07:02;8.37;;;6.87;;
30519;SDS011;17300;50.374;8.006;2022-10-31T12:09:29;7.30;;;5.67;;
30519;SDS011;17300;50.374;8.006;2022-10-31T12:12:03;5.93;;;5.00;;
30519;SDS011;17300;50.374;8.006;2022-10-31T12:14:45;5.97;;;4.83;;
30519;SDS011;17300;50.374;8.006;2022-10-31T12:17:21;6.60;;;5.80;;
30519;SDS011;17300;50.374;8.006;2022-10-31T12:19:58;7.57;;;6.60;;
30519;SDS011;17300;50.374;8.006;2022-10-31T12:22:36;6.63;;;5.93;;
30519;SDS011;17300;50.374;8.006;2022-10-31T12:25:13;6.40;;;5.80;;
30519;SDS011;17300;50.374;8.006;2022-10-31T12:27:56;6.47;;;5.83;;
30519;SDS011;17300;50.374;8.006;2022-10-31T12:30:31;6.53;;;5.83;;
30519;SDS011;17300;50.374;8.006;2022-10-31T12:33:21;6.63;;;5.90;;
30519;SDS011;17300;50.374;8.006;2022-10-31T12:36:03;7.63;;;6.00;;
30519;SDS011;17300;50.374;8.006;2022-10-31T12:38:56;6.80;;;6.10;;
30519;SDS011;17300;50.374;8.006;2022-10-31T12:41:36;6.37;;;5.73;;
30519;SDS011;17300;50.374;8.006;2022-10-31T12:44:13;7.93;;;5.87;;
30519;SDS011;17300;50.374;8.006;2022-10-31T12:46:55;6.63;;;5.97;;
30519;SDS011;17300;50.374;8.006;2022-10-31T12:49:46;5.93;;;5.20;;
30519;SDS011;17300;50.374;8.006;2022-10-31T12:52:31;6.30;;;5.47;;
30519;SDS011;17300;50.374;8.006;2022-10-31T12:55:14;6.03;;;5.37;;
30519;SDS011;17300;50.374;8.006;2022-10-31T12:57:52;5.77;;;5.10;;
30519;SDS011;17300;50.374;8.006;2022-10-31T13:00:24;5.97;;;5.37;;
30519;SDS011;17300;50.374;8.006;2022-10-31T13:02:54;6.63;;;5.47;;
30519;SDS011;17300;50.374;8.006;2022-10-31T13:05:26;7.30;;;5.60;;
30519;SDS011;17300;50.374;8.006;2022-10-31T13:07:57;5.90;;;5.37;;
30519;SDS011;17300;50.374;8.006;2022-10-31T13:10:29;5.63;;;5.13;;
30519;SDS011;17300;50.374;8.006;2022-10-31T13:13:02;6.43;;;5.50;;
30519;SDS011;17300;50.374;8.006;2022-10-31T13:15:35;6.70;;;5.80;;
30519;SDS011;17300;50.374;8.006;2022-10-31T13:18:16;6.67;;;5.57;;
30519;SDS011;17300;50.374;8.006;2022-10-31T13:20:53;6.30;;;5.30;;
30519;SDS011;17300;50.374;8.006;2022-10-31T13:23:22;6.13;;;5.23;;
30519;SDS011;17300;50.374;8.006;2022-10-31T13:25:56;5.23;;;4.60;;
30519;SDS011;17300;50.374;8.006;2022-10-31T13:28:26;5.03;;;4.60;;
30519;SDS011;17300;50.374;8.006;2022-10-31T13:31:00;5.67;;;4.30;;
30519;SDS011;17300;50.374;8.006;2022-10-31T13:33:28;5.30;;;4.80;;
30519;SDS011;17300;50.374;8.006;2022-10-31T13:36:02;5.97;;;4.80;;
30519;SDS011;17300;50.374;8.006;2022-10-31T13:38:38;7.53;;;4.77;;
30519;SDS011;17300;50.374;8.006;2022-10-31T13:41:13;6.17;;;4.93;;
30519;SDS011;17300;50.374;8.006;2022-10-31T13:43:59;5.07;;;4.20;;
30519;SDS011;17300;50.374;8.006;2022-10-31T13:46:36;5.43;;;4.47;;
30519;SDS011;17300;50.374;8.006;2022-10-31T13:49:04;8.20;;;6.40;;
30519;SDS011;17300;50.374;8.006;2022-10-31T13:51:49;6.90;;;6.20;;
30519;SDS011;17300;50.374;8.006;2022-10-31T13:54:21;7.47;;;6.50;;
30519;SDS011;17300;50.374;8.006;2022-10-31T13:56:50;8.27;;;7.17;;
30519;SDS011;17300;50.374;8.006;2022-10-31T13:59:19;12.43;;;10.80;;
30519;SDS011;17300;50.374;8.006;2022-10-31T14:01:48;14.60;;;12.53;;
30519;SDS011;17300;50.374;8.006;2022-10-31T14:04:18;22.60;;;17.43;;
30519;SDS011;17300;50.374;8.006;2022-10-31T14:06:51;25.47;;;21.07;;
30519;SDS011;17300;50.374;8.006;2022-10-31T14:09:28;25.10;;;21.87;;
30519;SDS011;17300;50.374;8.006;2022-10-31T14:11:59;21.10;;;18.73;;
30519;SDS011;17300;50.374;8.006;2022-10-31T14:14:30;21.40;;;17.50;;
30519;SDS011;17300;50.374;8.006;2022-10-31T14:17:01;16.03;;;14.43;;
30519;SDS011;17300;50.374;8.006;2022-10-31T14:19:28;15.97;;;13.03;;
30519;SDS011;17300;50.374;8.006;2022-10-31T14:21:55;11.63;;;10.27;;
30519;SDS011;17300;50.374;8.006;2022-10-31T14:24:34;9.80;;;8.73;;
30519;SDS011;17300;50.374;8.006;2022-10-31T14:30:16;7.53;;;6.70;;
30519;SDS011;17300;50.374;8.006;2022-10-31T14:32:52;6.70;;;6.10;;
30519;SDS011;17300;50.374;8.006;2022-10-31T14:35:20;6.80;;;6.10;;
30519;SDS011;17300;50.374;8.006;2022-10-31T14:38:03;7.60;;;6.23;;
30519;SDS011;17300;50.374;8.006;2022-10-31T14:40:49;6.57;;;5.83;;
30519;SDS011;17300;50.374;8.006;2022-10-31T14:43:46;6.87;;;5.77;;
30519;SDS011;17300;50.374;8.006;2022-10-31T14:46:28;6.33;;;5.60;;
30519;SDS011;17300;50.374;8.006;2022-10-31T14:49:10;5.90;;;5.30;;
30519;SDS011;17300;50.374;8.006;2022-10-31T14:51:45;165.47;;;29.73;;
30519;SDS011;17300;50.374;8.006;2022-10-31T14:54:14;63.33;;;16.67;;
30519;SDS011;17300;50.374;8.006;2022-10-31T14:56:46;17.37;;;7.77;;
30519;SDS011;17300;50.374;8.006;2022-10-31T14:59:18;13.70;;;6.87;;
30519;SDS011;17300;50.374;8.006;2022-10-31T15:01:51;19.00;;;8.10;;
30519;SDS011;17300;50.374;8.006;2022-10-31T15:04:23;20.50;;;7.70;;
30519;SDS011;17300;50.374;8.006;2022-10-31T15:06:52;7.60;;;6.03;;
30519;SDS011;17300;50.374;8.006;2022-10-31T15:09:26;9.13;;;5.67;;
30519;SDS011;17300;50.374;8.006;2022-10-31T15:11:54;10.17;;;6.20;;
30519;SDS011;17300;50.374;8.006;2022-10-31T15:14:25;8.97;;;5.97;;
30519;SDS011;17300;50.374;8.006;2022-10-31T15:16:53;7.77;;;5.70;;
30519;SDS011;17300;50.374;8.006;2022-10-31T15:19:23;5.67;;;5.17;;
30519;SDS011;17300;50.374;8.006;2022-10-31T15:21:53;6.43;;;4.90;;
30519;SDS011;17300;50.374;8.006;2022-10-31T15:24:22;5.57;;;5.03;;